Terminal Aerodrome Forecast
Issued by NWS Houston/Galveston, TX

Home | Current Version | Previous Version | Text Only | Print | Product List | Glossary On
Versions: 1 2 3 4 5 6 7 8 9 10 11 12 13 14 15 16 17 18 19 20 21 22 23 24 25 26 27 28 29 30 31 32 33 34 35 36 37 38 39 40 41 42 43 44 45 46 47 48 49 50
000
FTUS44 KHGX 070802 AAA
TAFCLL
TAF AMD
KCLL 070802Z 0708/0806 35004KT P6SM OVC020
     FM071300 VRB03KT 5SM BR OVC007
     FM071500 VRB03KT 6SM MIFG OVC015
     FM071900 16005KT P6SM BKN025
     FM072200 VRB05KT P6SM SCT035
     FM080300 36005KT P6SM OVC015=

USA.gov is the U.S. government's official web portal to all federal, state and local government web resources and services.